createdAt,value
2022-11-13T00:00:02.655Z,84.31
2022-11-13T00:01:02.637Z,84.31
2022-11-13T00:02:02.673Z,84.31
2022-11-13T00:03:02.665Z,84.34
2022-11-13T00:04:02.599Z,84.45
2022-11-13T00:05:02.601Z,84.45
2022-11-13T00:06:02.580Z,84.45
2022-11-13T00:07:02.639Z,84.45
2022-11-13T00:08:02.754Z,84.34
2022-11-13T00:09:02.554Z,84.25
2022-11-13T00:10:02.541Z,84.25
2022-11-13T00:11:02.524Z,84.34
2022-11-13T00:12:02.808Z,84.25
2022-11-13T00:13:02.729Z,84.34
2022-11-13T00:14:02.469Z,84.34
2022-11-13T00:15:02.476Z,84.45
2022-11-13T00:16:02.449Z,84.45
2022-11-13T00:17:02.454Z,84.45
2022-11-13T00:18:02.474Z,84.34
2022-11-13T00:19:02.430Z,84.34
2022-11-13T00:20:02.409Z,84.14
2022-11-13T00:21:02.403Z,84.04
2022-11-13T00:22:02.388Z,84.04
2022-11-13T00:23:02.385Z,83.94
2022-11-13T00:24:02.685Z,83.94
2022-11-13T00:25:02.350Z,84.04
2022-11-13T00:26:02.345Z,84.04
2022-11-13T00:27:02.334Z,84.04
2022-11-13T00:28:02.341Z,83.94
2022-11-13T00:29:02.305Z,84.04
2022-11-13T00:30:02.593Z,84.04
2022-11-13T00:31:02.293Z,84.14
2022-11-13T00:32:02.285Z,84.14
2022-11-13T00:33:02.276Z,83.94
2022-11-13T00:34:19.683Z,83.98
2022-11-13T00:35:03.261Z,83.87
2022-11-13T00:36:02.237Z,83.77
2022-11-13T00:37:02.214Z,83.77
2022-11-13T00:38:02.203Z,83.53
2022-11-13T00:39:02.184Z,83.42
2022-11-13T00:40:02.447Z,83.32
2022-11-13T00:41:02.187Z,83.26
2022-11-13T00:42:02.155Z,83.26
2022-11-13T00:43:08.802Z,83.26
2022-11-13T00:44:02.150Z,83.26
2022-11-13T00:45:02.355Z,83.26
2022-11-13T00:46:02.125Z,83.15
2022-11-13T00:47:02.097Z,83.05
2022-11-13T00:48:02.120Z,83.05
2022-11-13T00:49:02.077Z,82.95
2022-11-13T00:50:02.081Z,82.95
2022-11-13T00:51:02.046Z,82.84
2022-11-13T00:52:02.049Z,82.84
2022-11-13T00:53:02.227Z,82.84
2022-11-13T00:54:02.327Z,82.75
2022-11-13T00:55:02.007Z,82.64
2022-11-13T00:56:02.001Z,82.64
2022-11-13T00:57:02.190Z,82.64
2022-11-13T00:58:01.976Z,82.64
2022-11-13T00:59:01.958Z,82.75
2022-11-13T01:00:01.948Z,82.64
2022-11-13T01:01:01.949Z,82.64
2022-11-13T01:02:01.981Z,82.54
2022-11-13T01:03:02.134Z,82.43
2022-11-13T01:04:01.910Z,82.43
2022-11-13T01:05:01.889Z,82.43
2022-11-13T01:06:01.891Z,82.43
2022-11-13T01:07:01.903Z,82.43
2022-11-13T01:08:01.849Z,82.33
2022-11-13T01:09:02.072Z,82.33
2022-11-13T01:10:01.839Z,82.33
2022-11-13T01:11:01.821Z,82.23
2022-11-13T01:12:02.032Z,82.13
2022-11-13T01:13:01.796Z,82.13
2022-11-13T01:14:01.802Z,82.13
2022-11-13T01:15:01.772Z,82.13
2022-11-13T01:16:02.420Z,81.92
2022-11-13T01:17:01.963Z,81.92
2022-11-13T01:18:01.755Z,82.03
2022-11-13T01:19:01.754Z,82.06
2022-11-13T01:20:01.726Z,82.03
2022-11-13T01:21:01.703Z,82.06
2022-11-13T01:22:01.954Z,82.06
2022-11-13T01:23:01.709Z,82.06
2022-11-13T01:24:01.677Z,82.06
2022-11-13T01:25:02.614Z,82.06
2022-11-13T01:26:01.642Z,82.06
2022-11-13T01:27:01.972Z,82.06
2022-11-13T01:28:01.629Z,82.17
2022-11-13T01:29:01.614Z,82.17
2022-11-13T01:30:01.629Z,82.17
2022-11-13T01:31:01.605Z,82.17
2022-11-13T01:32:01.894Z,82.27
2022-11-13T01:33:01.577Z,82.27
2022-11-13T01:34:01.569Z,82.27
2022-11-13T01:35:01.544Z,82.27
2022-11-13T01:36:01.544Z,82.27
2022-11-13T01:37:01.842Z,82.37
2022-11-13T01:38:01.518Z,82.37
2022-11-13T01:39:01.495Z,82.47
2022-11-13T01:40:01.521Z,82.47
2022-11-13T01:41:01.493Z,82.57
2022-11-13T01:42:01.469Z,82.57
2022-11-13T01:43:01.740Z,82.57
2022-11-13T01:44:01.440Z,82.68
2022-11-13T01:45:01.427Z,82.68
2022-11-13T01:46:01.428Z,82.68
2022-11-13T01:47:01.700Z,82.68
2022-11-13T01:48:01.410Z,82.78
2022-11-13T01:49:01.388Z,82.78
2022-11-13T01:50:01.390Z,82.89
2022-11-13T01:51:01.370Z,82.89
2022-11-13T01:52:01.668Z,82.89
2022-11-13T01:53:01.361Z,82.99
2022-11-13T01:54:01.342Z,83.09
2022-11-13T01:55:01.638Z,83.13
2022-11-13T01:56:01.311Z,83.23
2022-11-13T01:57:01.315Z,83.23
2022-11-13T01:58:01.278Z,83.33
2022-11-13T01:59:01.269Z,83.44
2022-11-13T02:00:01.579Z,83.44
2022-11-13T02:01:01.263Z,83.44
2022-11-13T02:02:01.300Z,83.44
2022-11-13T02:03:01.251Z,83.44
2022-11-13T02:04:01.224Z,83.44
2022-11-13T02:05:01.465Z,83.44
2022-11-13T02:06:01.207Z,83.33
2022-11-13T02:07:01.277Z,83.23
2022-11-13T02:08:01.192Z,83.03
2022-11-13T02:09:01.175Z,83.03
2022-11-13T02:10:01.143Z,83.03
2022-11-13T02:11:01.164Z,82.92
2022-11-13T02:12:01.128Z,82.86
2022-11-13T02:13:01.134Z,82.76
2022-11-13T02:14:01.093Z,82.76
2022-11-13T02:15:01.095Z,82.65
2022-11-13T02:16:01.072Z,82.65
2022-11-13T02:17:01.353Z,82.55
2022-11-13T02:18:01.052Z,82.34
2022-11-13T02:19:01.053Z,82.34
2022-11-13T02:20:01.261Z,82.04
2022-11-13T02:21:01.023Z,82.04
2022-11-13T02:22:01.013Z,82.04
2022-11-13T02:23:00.995Z,82.04
2022-11-13T02:24:00.974Z,82.04
2022-11-13T02:25:00.975Z,82.14
2022-11-13T02:26:00.994Z,82.14
2022-11-13T02:27:00.965Z,82.04
2022-11-13T02:28:00.935Z,81.93
2022-11-13T02:29:00.939Z,81.93
2022-11-13T02:30:01.211Z,82.04
2022-11-13T02:31:00.925Z,81.93
2022-11-13T02:32:00.885Z,81.93
2022-11-13T02:33:00.885Z,82.04
2022-11-13T02:34:00.879Z,82.04
2022-11-13T02:35:00.856Z,81.93
2022-11-13T02:36:00.845Z,81.93
2022-11-13T02:37:01.117Z,81.93
2022-11-13T02:38:00.847Z,81.93
2022-11-13T02:39:01.016Z,81.93
2022-11-13T02:40:00.948Z,82.04
2022-11-13T02:41:00.800Z,82.04
2022-11-13T02:42:00.790Z,82.07
2022-11-13T02:43:00.782Z,82.07
2022-11-13T02:44:00.968Z,82.18
2022-11-13T02:45:00.761Z,82.18
2022-11-13T02:46:00.746Z,82.18
2022-11-13T02:47:00.728Z,82.18
2022-11-13T02:48:00.960Z,82.18
2022-11-13T02:49:07.718Z,82.18
2022-11-13T02:50:00.681Z,82.07
2022-11-13T02:51:00.682Z,82.07
2022-11-13T02:52:00.904Z,82.18
2022-11-13T02:53:00.676Z,82.28
2022-11-13T02:54:00.953Z,82.28
2022-11-13T02:55:00.641Z,82.39
2022-11-13T02:56:00.626Z,82.48
2022-11-13T02:57:00.604Z,82.48
2022-11-13T02:58:00.609Z,82.59
2022-11-13T02:59:00.598Z,82.69
2022-11-13T03:00:00.815Z,82.69
2022-11-13T03:01:00.576Z,82.79
2022-11-13T03:02:02.034Z,82.79
2022-11-13T03:03:00.534Z,82.90
2022-11-13T03:04:00.744Z,82.93
2022-11-13T03:05:15.783Z,82.93
2022-11-13T03:06:01.805Z,82.93
2022-11-13T03:07:00.509Z,82.93
2022-11-13T03:08:00.492Z,82.83
2022-11-13T03:09:00.466Z,82.83
2022-11-13T03:10:00.758Z,82.83
2022-11-13T03:11:00.459Z,82.73
2022-11-13T03:12:00.426Z,82.63
2022-11-13T03:13:00.416Z,82.42
2022-11-13T03:14:00.418Z,82.53
2022-11-13T03:15:00.728Z,82.53
2022-11-13T03:16:00.386Z,82.42
2022-11-13T03:17:00.380Z,82.42
2022-11-13T03:18:00.371Z,82.42
2022-11-13T03:19:00.347Z,82.53
2022-11-13T03:20:00.599Z,82.53
2022-11-13T03:21:00.328Z,82.53
2022-11-13T03:22:00.325Z,82.53
2022-11-13T03:23:00.300Z,82.42
2022-11-13T03:24:00.301Z,82.53
2022-11-13T03:25:00.570Z,82.63
2022-11-13T03:26:00.269Z,82.73
2022-11-13T03:27:00.273Z,82.83
2022-11-13T03:28:00.259Z,82.93
2022-11-13T03:29:00.240Z,82.93
2022-11-13T03:30:00.528Z,83.14
2022-11-13T03:31:00.256Z,83.28
2022-11-13T03:32:00.199Z,83.39
2022-11-13T03:33:00.202Z,83.39
2022-11-13T03:34:00.191Z,83.49
2022-11-13T03:35:00.481Z,83.49
2022-11-13T03:36:00.166Z,83.59
2022-11-13T03:37:00.277Z,83.59
2022-11-13T03:38:00.123Z,83.59
2022-11-13T03:39:00.130Z,83.70
2022-11-13T03:40:00.113Z,83.80
2022-11-13T03:41:00.433Z,83.90
2022-11-13T03:42:00.136Z,84.05
2022-11-13T03:43:00.087Z,84.14
2022-11-13T03:44:00.081Z,84.14
2022-11-13T03:45:00.062Z,84.14
2022-11-13T03:46:00.343Z,84.14
2022-11-13T03:47:00.026Z,84.14
2022-11-13T03:48:00.014Z,84.14
2022-11-13T03:49:00.002Z,84.14
2022-11-13T03:49:59.984Z,84.14
2022-11-13T03:51:00.232Z,84.14
2022-11-13T03:51:59.977Z,84.14
2022-11-13T03:52:59.965Z,84.05
2022-11-13T03:53:59.958Z,84.05
2022-11-13T03:54:59.934Z,84.05
2022-11-13T03:56:14.581Z,83.94
2022-11-13T03:57:00.233Z,83.84
2022-11-13T03:57:59.895Z,83.84
2022-11-13T03:58:59.906Z,83.73
2022-11-13T03:59:59.886Z,83.73
2022-11-13T04:01:00.189Z,83.73
2022-11-13T04:02:00.195Z,83.63
2022-11-13T04:02:59.844Z,83.53
2022-11-13T04:03:59.846Z,83.32
2022-11-13T04:05:00.060Z,83.12
2022-11-13T04:05:59.820Z,83.01
2022-11-13T04:06:59.830Z,82.91
2022-11-13T04:07:59.777Z,82.81
2022-11-13T04:08:59.811Z,82.70
2022-11-13T04:09:59.769Z,82.70
2022-11-13T04:10:59.746Z,82.70
2022-11-13T04:11:59.727Z,82.50
2022-11-13T04:12:59.741Z,82.40
2022-11-13T04:13:59.716Z,82.40
2022-11-13T04:15:00.006Z,82.40
2022-11-13T04:15:59.699Z,82.19
2022-11-13T04:16:59.958Z,81.98
2022-11-13T04:17:59.680Z,81.88
2022-11-13T04:18:59.657Z,81.88
2022-11-13T04:19:59.872Z,81.77
2022-11-13T04:20:59.628Z,81.77
2022-11-13T04:21:59.635Z,81.67
2022-11-13T04:22:59.607Z,81.57
2022-11-13T04:23:59.592Z,81.67
2022-11-13T04:24:59.588Z,81.57
2022-11-13T04:25:59.891Z,81.57
2022-11-13T04:26:59.568Z,81.67
2022-11-13T04:27:59.563Z,81.67
2022-11-13T04:28:59.552Z,81.77
2022-11-13T04:29:59.530Z,81.77
2022-11-13T04:30:59.520Z,81.77
2022-11-13T04:31:59.806Z,81.88
2022-11-13T04:32:59.503Z,81.98
2022-11-13T04:33:59.480Z,82.09
2022-11-13T04:34:59.496Z,82.19
2022-11-13T04:35:59.474Z,82.33
2022-11-13T04:36:59.451Z,82.54
2022-11-13T04:37:59.684Z,82.54
2022-11-13T04:38:59.445Z,82.54
2022-11-13T04:39:59.424Z,82.54
2022-11-13T04:40:59.414Z,82.43
2022-11-13T04:41:59.404Z,82.54
2022-11-13T04:42:59.696Z,82.43
2022-11-13T04:43:59.361Z,82.43
2022-11-13T04:44:59.374Z,82.43
2022-11-13T04:45:59.341Z,82.43
2022-11-13T04:46:59.352Z,82.54
2022-11-13T04:47:59.566Z,82.43
2022-11-13T04:48:59.347Z,82.54
2022-11-13T04:49:59.293Z,82.54
2022-11-13T04:50:59.307Z,82.43
2022-11-13T04:51:59.285Z,82.43
2022-11-13T04:52:59.280Z,82.54
2022-11-13T04:53:59.258Z,82.64
2022-11-13T04:54:59.565Z,82.64
2022-11-13T04:55:59.226Z,82.64
2022-11-13T04:56:59.227Z,82.54
2022-11-13T04:57:59.202Z,82.54
2022-11-13T04:58:59.204Z,82.54
2022-11-13T04:59:59.175Z,82.68
2022-11-13T05:00:59.489Z,82.68
2022-11-13T05:01:59.241Z,82.78
2022-11-13T05:02:59.146Z,82.89
2022-11-13T05:03:59.133Z,82.78
2022-11-13T05:05:04.444Z,82.89
2022-11-13T05:06:00.398Z,82.98
2022-11-13T05:06:59.147Z,83.09
2022-11-13T05:07:59.094Z,83.19
2022-11-13T05:08:59.075Z,83.19
2022-11-13T05:09:59.080Z,83.19
2022-11-13T05:10:59.054Z,83.19
2022-11-13T05:11:59.301Z,83.29
2022-11-13T05:12:59.028Z,83.40
2022-11-13T05:14:03.191Z,83.44
2022-11-13T05:14:59.007Z,83.44
2022-11-13T05:15:59.010Z,83.54
2022-11-13T05:16:59.296Z,83.54
2022-11-13T05:17:58.991Z,83.54
2022-11-13T05:18:58.973Z,83.54
2022-11-13T05:19:58.947Z,83.54
2022-11-13T05:20:58.958Z,83.44
2022-11-13T05:21:58.929Z,83.33
2022-11-13T05:22:58.937Z,83.33
2022-11-13T05:23:58.907Z,83.23
2022-11-13T05:24:58.902Z,83.33
2022-11-13T05:25:58.878Z,83.33
2022-11-13T05:26:58.870Z,83.23
2022-11-13T05:27:58.935Z,83.33
2022-11-13T05:28:59.171Z,83.13
2022-11-13T05:29:58.850Z,83.13
2022-11-13T05:30:58.827Z,83.13
2022-11-13T05:31:58.819Z,83.13
2022-11-13T05:32:59.130Z,83.06
2022-11-13T05:34:02.690Z,83.06
2022-11-13T05:34:59.790Z,83.06
2022-11-13T05:35:58.781Z,83.06
2022-11-13T05:36:58.979Z,83.03
2022-11-13T05:37:58.752Z,82.92
2022-11-13T05:38:58.728Z,82.82
2022-11-13T05:39:58.733Z,82.71
2022-11-13T05:40:58.705Z,82.51
2022-11-13T05:41:59.006Z,82.40
2022-11-13T05:42:58.697Z,82.40
2022-11-13T05:43:59.760Z,82.40
2022-11-13T05:44:58.652Z,82.24
2022-11-13T05:45:58.652Z,82.30
2022-11-13T05:46:58.652Z,82.10
2022-11-13T05:47:58.830Z,81.99
2022-11-13T05:48:58.626Z,81.79
2022-11-13T05:49:58.601Z,81.68
2022-11-13T05:50:58.608Z,81.58
2022-11-13T05:51:58.595Z,81.37
2022-11-13T05:52:58.576Z,81.37
2022-11-13T05:53:58.897Z,81.27
2022-11-13T05:54:58.556Z,81.17
2022-11-13T05:55:58.533Z,81.17
2022-11-13T05:56:58.522Z,81.07
2022-11-13T05:57:58.512Z,80.96
2022-11-13T05:58:58.545Z,80.96
2022-11-13T05:59:58.771Z,80.76
2022-11-13T06:00:58.777Z,80.76
2022-11-13T06:01:58.834Z,80.86
2022-11-13T06:02:58.465Z,80.86
2022-11-13T06:03:58.456Z,80.65
2022-11-13T06:04:58.440Z,80.55
2022-11-13T06:05:58.435Z,80.44
2022-11-13T06:06:58.647Z,80.44
2022-11-13T06:07:58.408Z,80.44
2022-11-13T06:08:58.584Z,80.44
2022-11-13T06:09:58.384Z,80.34
2022-11-13T06:10:58.356Z,80.24
2022-11-13T06:11:58.355Z,80.24
2022-11-13T06:12:58.447Z,80.14
2022-11-13T06:13:58.582Z,79.93
2022-11-13T06:14:58.644Z,80.04
2022-11-13T06:15:58.319Z,79.93
2022-11-13T06:16:58.312Z,79.93
2022-11-13T06:17:58.305Z,79.93
2022-11-13T06:18:58.268Z,79.93
2022-11-13T06:19:58.498Z,79.72
2022-11-13T06:20:58.246Z,79.72
2022-11-13T06:21:58.562Z,79.62
2022-11-13T06:22:58.238Z,79.72
2022-11-13T06:23:58.230Z,79.72
2022-11-13T06:24:58.520Z,79.72
2022-11-13T06:25:58.200Z,79.62
2022-11-13T06:26:58.191Z,79.72
2022-11-13T06:27:58.271Z,79.72
2022-11-13T06:28:58.161Z,79.72
2022-11-13T06:29:58.411Z,79.83
2022-11-13T06:30:58.127Z,79.72
2022-11-13T06:31:58.132Z,79.62
2022-11-13T06:32:58.212Z,79.62
2022-11-13T06:33:58.119Z,79.52
2022-11-13T06:34:58.079Z,79.41
2022-11-13T06:35:58.389Z,79.52
2022-11-13T06:36:58.075Z,79.52
2022-11-13T06:37:58.063Z,79.52
2022-11-13T06:38:58.112Z,79.62
2022-11-13T06:39:58.253Z,79.62
2022-11-13T06:40:58.028Z,79.76
2022-11-13T06:41:58.002Z,79.86
2022-11-13T06:42:57.999Z,79.97
2022-11-13T06:44:02.310Z,80.07
2022-11-13T06:44:59.232Z,80.18
2022-11-13T06:45:57.975Z,80.18
2022-11-13T06:46:58.272Z,80.18
2022-11-13T06:47:57.954Z,80.07
2022-11-13T06:48:57.924Z,80.07
2022-11-13T06:49:57.912Z,80.07
2022-11-13T06:50:57.901Z,79.97
2022-11-13T06:51:58.135Z,79.97
2022-11-13T06:52:57.955Z,79.97
2022-11-13T06:53:57.865Z,79.97
2022-11-13T06:54:57.853Z,79.72
2022-11-13T06:55:57.859Z,79.52
2022-11-13T06:56:57.832Z,79.52
2022-11-13T06:57:58.057Z,79.41
2022-11-13T06:58:57.820Z,79.52
2022-11-13T06:59:57.802Z,79.41
2022-11-13T07:00:57.841Z,79.41
2022-11-13T07:01:57.775Z,79.41
2022-11-13T07:02:57.782Z,79.41
2022-11-13T07:03:57.766Z,79.31
2022-11-13T07:04:57.734Z,79.11
2022-11-13T07:05:57.983Z,78.90
2022-11-13T07:06:57.750Z,78.69
2022-11-13T07:07:57.722Z,78.69
2022-11-13T07:08:57.691Z,78.80
2022-11-13T07:09:57.684Z,78.69
2022-11-13T07:10:57.665Z,78.59
2022-11-13T07:11:57.907Z,78.69
2022-11-13T07:12:57.648Z,78.80
2022-11-13T07:13:57.646Z,78.80
2022-11-13T07:14:57.625Z,78.80
2022-11-13T07:15:57.629Z,78.80
2022-11-13T07:17:09.113Z,78.90
2022-11-13T07:17:58.927Z,79.04
2022-11-13T07:18:57.579Z,79.14
2022-11-13T07:19:57.568Z,79.11
2022-11-13T07:20:57.558Z,79.11
2022-11-13T07:21:57.781Z,79.21
2022-11-13T07:22:57.538Z,79.31
2022-11-13T07:23:57.526Z,79.41
2022-11-13T07:24:57.524Z,79.55
2022-11-13T07:25:57.508Z,79.52
2022-11-13T07:26:57.517Z,79.62
2022-11-13T07:27:57.803Z,79.62
2022-11-13T07:28:57.459Z,79.55
2022-11-13T07:30:02.317Z,79.66
2022-11-13T07:30:58.441Z,79.62
2022-11-13T07:31:57.430Z,79.62
2022-11-13T07:32:57.449Z,79.52
2022-11-13T07:33:57.635Z,79.62
2022-11-13T07:34:57.409Z,79.52
2022-11-13T07:35:57.380Z,79.52
2022-11-13T07:36:57.384Z,79.52
2022-11-13T07:37:57.383Z,79.41
2022-11-13T07:39:00.239Z,79.41
2022-11-13T07:39:57.644Z,79.41
2022-11-13T07:40:57.351Z,79.31
2022-11-13T07:41:57.353Z,79.31
2022-11-13T07:42:57.316Z,79.21
2022-11-13T07:43:57.633Z,79.11
2022-11-13T07:44:57.296Z,79.41
2022-11-13T07:45:57.274Z,79.72
2022-11-13T07:46:57.263Z,79.62
2022-11-13T07:47:57.265Z,79.62
2022-11-13T07:48:57.231Z,79.52
2022-11-13T07:50:04.362Z,79.52
2022-11-13T07:50:58.226Z,79.52
2022-11-13T07:51:57.204Z,79.52
2022-11-13T07:52:57.195Z,79.48
2022-11-13T07:53:57.182Z,79.58
2022-11-13T07:54:57.162Z,79.38
2022-11-13T07:55:57.490Z,79.17
2022-11-13T07:56:57.143Z,79.38
2022-11-13T07:57:57.142Z,79.48
2022-11-13T07:58:57.137Z,79.58
2022-11-13T07:59:57.128Z,79.58
2022-11-13T08:00:57.383Z,79.69
2022-11-13T08:01:57.120Z,79.69
2022-11-13T08:02:57.089Z,79.58
2022-11-13T08:03:57.065Z,79.27
2022-11-13T08:04:57.067Z,79.24
2022-11-13T08:05:57.045Z,79.14
2022-11-13T08:06:57.443Z,78.72
2022-11-13T08:07:57.015Z,78.62
2022-11-13T08:08:57.006Z,78.62
2022-11-13T08:09:56.996Z,78.83
2022-11-13T08:10:56.998Z,78.62
2022-11-13T08:11:56.988Z,78.41
2022-11-13T08:12:57.290Z,78.41
2022-11-13T08:13:56.954Z,78.52
2022-11-13T08:14:57.148Z,78.41
2022-11-13T08:15:56.927Z,78.17
2022-11-13T08:16:56.929Z,77.97
2022-11-13T08:17:56.920Z,77.86
2022-11-13T08:18:56.887Z,77.86
2022-11-13T08:19:56.884Z,77.66
2022-11-13T08:20:57.121Z,77.35
2022-11-13T08:21:56.871Z,77.14
2022-11-13T08:22:56.852Z,76.90
2022-11-13T08:23:56.837Z,76.70
2022-11-13T08:24:56.832Z,76.39
2022-11-13T08:25:57.128Z,76.39
2022-11-13T08:26:56.811Z,76.49
2022-11-13T08:27:56.810Z,76.35
2022-11-13T08:28:56.791Z,76.14
2022-11-13T08:29:56.790Z,75.94
2022-11-13T08:30:56.783Z,75.94
2022-11-13T08:31:56.758Z,75.84
2022-11-13T08:32:56.731Z,75.59
2022-11-13T08:33:56.733Z,75.49
2022-11-13T08:34:56.724Z,75.49
2022-11-13T08:35:56.698Z,75.18
2022-11-13T08:36:56.731Z,74.95
2022-11-13T08:37:56.685Z,74.63
2022-11-13T08:38:56.673Z,74.53
2022-11-13T08:39:56.879Z,74.22
2022-11-13T08:40:56.653Z,74.02
2022-11-13T08:41:56.631Z,74.08
2022-11-13T08:42:56.626Z,73.78
2022-11-13T08:43:56.612Z,73.57
2022-11-13T08:44:56.595Z,73.16
2022-11-13T08:45:56.851Z,73.16
2022-11-13T08:46:56.714Z,73.02
2022-11-13T08:47:56.561Z,73.02
2022-11-13T08:48:56.562Z,72.92
2022-11-13T08:50:03.913Z,72.61
2022-11-13T08:50:56.535Z,72.38
2022-11-13T08:51:56.511Z,71.86
2022-11-13T08:52:56.519Z,71.76
2022-11-13T08:53:56.503Z,71.35
2022-11-13T08:54:56.489Z,71.31
2022-11-13T08:55:56.696Z,70.90
2022-11-13T08:56:58.712Z,70.80
2022-11-13T08:57:57.468Z,70.60
2022-11-13T08:58:56.434Z,70.46
2022-11-13T08:59:56.447Z,70.46
2022-11-13T09:00:56.424Z,70.46
2022-11-13T09:01:56.425Z,70.36
2022-11-13T09:02:56.388Z,69.92
2022-11-13T09:03:56.663Z,69.51
2022-11-13T09:04:56.377Z,69.40
2022-11-13T09:05:56.369Z,69.27
2022-11-13T09:06:56.392Z,69.27
2022-11-13T09:07:56.347Z,69.17
2022-11-13T09:08:56.315Z,68.96
2022-11-13T09:09:56.307Z,68.41
2022-11-13T09:10:56.322Z,68.21
2022-11-13T09:11:56.295Z,68.21
2022-11-13T09:12:56.296Z,67.90
2022-11-13T09:13:56.298Z,67.57
2022-11-13T09:14:56.263Z,67.26
2022-11-13T09:15:56.270Z,66.95
2022-11-13T09:16:56.262Z,67.16
2022-11-13T09:17:56.212Z,66.92
2022-11-13T09:18:56.215Z,66.41
2022-11-13T09:19:59.506Z,66.41
2022-11-13T09:20:57.181Z,65.87
2022-11-13T09:21:56.203Z,66.07
2022-11-13T09:22:56.191Z,65.97
2022-11-13T09:23:56.154Z,66.07
2022-11-13T09:24:56.150Z,67.37
2022-11-13T09:25:56.134Z,67.57
2022-11-13T09:26:56.122Z,67.07
2022-11-13T09:27:56.099Z,67.03
2022-11-13T09:28:56.123Z,67.03
2022-11-13T09:29:56.085Z,65.30
2022-11-13T09:30:56.076Z,65.16
2022-11-13T09:31:56.082Z,65.37
2022-11-13T09:32:56.055Z,65.16
2022-11-13T09:33:56.042Z,64.04
2022-11-13T09:34:56.041Z,63.83
2022-11-13T09:35:56.203Z,64.11
2022-11-13T09:36:55.992Z,64.11
2022-11-13T09:37:55.994Z,64.11
2022-11-13T09:38:55.971Z,63.70
2022-11-13T09:39:55.955Z,62.76
2022-11-13T09:40:55.956Z,63.16
2022-11-13T09:41:56.157Z,63.57
2022-11-13T09:42:55.929Z,61.94
2022-11-13T09:43:59.747Z,62.42
2022-11-13T09:44:55.919Z,62.52
2022-11-13T09:45:55.913Z,62.11
2022-11-13T09:46:55.899Z,62.32
2022-11-13T09:47:56.105Z,61.30
2022-11-13T09:48:55.863Z,61.07
2022-11-13T09:49:55.846Z,61.16
2022-11-13T09:50:55.837Z,61.27
2022-11-13T09:51:56.076Z,61.27
2022-11-13T09:52:55.830Z,61.78
2022-11-13T09:53:55.809Z,60.63
2022-11-13T09:54:55.804Z,60.93
2022-11-13T09:55:55.775Z,60.93
2022-11-13T09:56:55.767Z,60.73
2022-11-13T09:57:55.967Z,60.60
2022-11-13T09:58:55.761Z,60.80
2022-11-13T09:59:55.733Z,61.00
2022-11-13T10:00:55.992Z,61.11
2022-11-13T10:01:55.722Z,61.21
2022-11-13T10:02:55.698Z,61.18
2022-11-13T10:04:04.367Z,61.49
2022-11-13T10:04:56.692Z,61.29
2022-11-13T10:05:56.002Z,61.29
2022-11-13T10:06:55.717Z,61.18
2022-11-13T10:07:55.639Z,60.98
2022-11-13T10:08:55.644Z,61.08
2022-11-13T10:09:55.639Z,60.98
2022-11-13T10:10:56.312Z,61.05
2022-11-13T10:11:55.594Z,60.95
2022-11-13T10:12:55.595Z,60.85
2022-11-13T10:13:55.785Z,60.85
2022-11-13T10:14:55.589Z,60.75
2022-11-13T10:15:55.552Z,60.72
2022-11-13T10:16:55.549Z,60.61
2022-11-13T10:17:56.976Z,60.41
2022-11-13T10:18:55.823Z,60.31
2022-11-13T10:19:55.506Z,60.18
2022-11-13T10:20:55.499Z,60.18
2022-11-13T10:22:07.705Z,60.08
2022-11-13T10:22:56.477Z,59.77
2022-11-13T10:23:55.459Z,59.88
2022-11-13T10:24:55.754Z,59.98
2022-11-13T10:25:55.426Z,59.54
2022-11-13T10:26:55.415Z,59.44
2022-11-13T10:27:55.469Z,59.54
2022-11-13T10:28:55.512Z,59.64
2022-11-13T10:29:55.642Z,59.44
2022-11-13T10:30:55.571Z,58.83
2022-11-13T10:31:55.367Z,59.11
2022-11-13T10:32:55.627Z,59.41
2022-11-13T10:33:55.338Z,59.11
2022-11-13T10:34:55.627Z,59.01
2022-11-13T10:35:55.322Z,58.70
2022-11-13T10:36:55.299Z,58.37
2022-11-13T10:37:55.287Z,58.67
2022-11-13T10:38:55.529Z,58.47
2022-11-13T10:39:55.258Z,58.27
2022-11-13T10:40:55.573Z,57.66
2022-11-13T10:41:55.229Z,58.17
2022-11-13T10:42:55.254Z,58.04
2022-11-13T10:43:55.230Z,58.24
2022-11-13T10:44:55.200Z,58.14
2022-11-13T10:45:55.454Z,58.24
2022-11-13T10:46:55.180Z,57.60
2022-11-13T10:48:04.062Z,57.81
2022-11-13T10:48:56.174Z,57.71
2022-11-13T10:49:55.453Z,57.17
2022-11-13T10:50:55.154Z,56.57
2022-11-13T10:51:55.125Z,56.77
2022-11-13T10:52:55.110Z,56.67
2022-11-13T10:53:55.103Z,55.85
2022-11-13T10:54:55.103Z,56.26
2022-11-13T10:55:55.312Z,56.26
2022-11-13T10:56:55.076Z,56.23
2022-11-13T10:57:56.544Z,55.93
2022-11-13T10:58:55.045Z,55.73
2022-11-13T10:59:55.313Z,55.63
2022-11-13T11:00:55.074Z,55.90
2022-11-13T11:01:55.019Z,55.70
2022-11-13T11:02:55.026Z,55.30
2022-11-13T11:03:54.999Z,55.40
2022-11-13T11:04:54.974Z,55.10
2022-11-13T11:05:54.975Z,55.30
2022-11-13T11:07:18.847Z,54.99
2022-11-13T11:07:56.111Z,55.10
2022-11-13T11:08:54.946Z,55.37
2022-11-13T11:09:54.916Z,55.47
2022-11-13T11:10:54.917Z,56.18
2022-11-13T11:11:54.895Z,56.18
2022-11-13T11:12:54.900Z,56.28
2022-11-13T11:13:54.870Z,56.99
2022-11-13T11:14:54.867Z,56.69
2022-11-13T11:15:54.861Z,56.38
2022-11-13T11:16:55.177Z,56.38
2022-11-13T11:17:54.828Z,56.38
2022-11-13T11:18:54.826Z,55.98
2022-11-13T11:19:54.803Z,55.77
2022-11-13T11:20:54.807Z,55.35
2022-11-13T11:21:54.891Z,55.24
2022-11-13T11:22:54.776Z,55.55
2022-11-13T11:23:56.394Z,55.44
2022-11-13T11:24:54.754Z,55.55
2022-11-13T11:25:54.730Z,55.35
2022-11-13T11:26:54.832Z,55.55
2022-11-13T11:27:54.715Z,55.55
2022-11-13T11:28:54.692Z,55.75
2022-11-13T11:29:54.688Z,55.32
2022-11-13T11:30:54.705Z,55.11
2022-11-13T11:31:54.674Z,54.91
2022-11-13T11:32:54.643Z,55.22
2022-11-13T11:33:54.755Z,54.91
2022-11-13T11:34:58.998Z,55.02
2022-11-13T11:35:54.638Z,54.51
2022-11-13T11:36:54.602Z,54.89
2022-11-13T11:37:54.905Z,54.49
2022-11-13T11:38:54.601Z,54.18
2022-11-13T11:39:54.824Z,54.18
2022-11-13T11:40:54.573Z,54.58
2022-11-13T11:41:54.566Z,54.66
2022-11-13T11:42:54.564Z,54.66
2022-11-13T11:43:54.551Z,54.86
2022-11-13T11:44:54.530Z,54.56
2022-11-13T11:45:54.710Z,54.16
2022-11-13T11:46:54.503Z,54.86
2022-11-13T11:47:54.475Z,54.96
2022-11-13T11:48:54.484Z,55.14
2022-11-13T11:49:54.452Z,55.44
2022-11-13T11:50:54.759Z,54.03
2022-11-13T11:51:54.441Z,54.63
2022-11-13T11:52:54.424Z,54.83
2022-11-13T11:53:54.417Z,54.63
2022-11-13T11:54:54.405Z,54.10
2022-11-13T11:55:54.379Z,52.29
2022-11-13T11:56:54.724Z,53.60
2022-11-13T11:57:54.353Z,53.80
2022-11-13T11:58:54.341Z,53.80
2022-11-13T11:59:54.348Z,53.40
2022-11-13T12:00:54.346Z,53.27
2022-11-13T12:01:54.303Z,53.27
2022-11-13T12:02:54.611Z,52.87
2022-11-13T12:03:54.286Z,52.67
2022-11-13T12:04:54.338Z,52.67
2022-11-13T12:05:54.289Z,52.97
2022-11-13T12:06:54.326Z,52.74
2022-11-13T12:07:54.236Z,52.64
2022-11-13T12:08:54.247Z,52.34
2022-11-13T12:09:54.205Z,51.84
2022-11-13T12:10:54.206Z,52.11
2022-11-13T12:11:54.189Z,53.22
2022-11-13T12:12:54.186Z,50.90
2022-11-13T12:13:54.167Z,51.00
2022-11-13T12:14:54.377Z,51.81
2022-11-13T12:15:54.162Z,51.20
2022-11-13T12:16:54.139Z,52.11
2022-11-13T12:17:54.126Z,52.22
2022-11-13T12:18:54.110Z,52.82
2022-11-13T12:19:54.111Z,52.01
2022-11-13T12:20:54.389Z,51.91
2022-11-13T12:21:54.091Z,51.61
2022-11-13T12:22:54.069Z,52.11
2022-11-13T12:23:54.052Z,51.81
2022-11-13T12:24:54.055Z,52.09
2022-11-13T12:25:54.333Z,51.08
2022-11-13T12:26:54.299Z,50.88
2022-11-13T12:27:54.011Z,51.18
2022-11-13T12:28:54.329Z,50.68
2022-11-13T12:29:53.982Z,50.48
2022-11-13T12:30:53.973Z,51.08
2022-11-13T12:31:53.976Z,51.18
2022-11-13T12:32:53.966Z,51.08
2022-11-13T12:33:58.324Z,50.96
2022-11-13T12:34:54.932Z,51.06
2022-11-13T12:35:53.927Z,50.45
2022-11-13T12:36:53.907Z,49.55
2022-11-13T12:37:53.893Z,49.44
2022-11-13T12:38:53.898Z,48.24
2022-11-13T12:39:54.111Z,49.15
2022-11-13T12:40:53.869Z,48.74
2022-11-13T12:41:53.858Z,48.92
2022-11-13T12:42:53.837Z,49.32
2022-11-13T12:43:54.096Z,49.22
2022-11-13T12:44:53.806Z,48.72
2022-11-13T12:45:53.799Z,50.93
2022-11-13T12:46:53.843Z,51.84
2022-11-13T12:47:53.775Z,52.01
2022-11-13T12:48:54.087Z,52.22
2022-11-13T12:49:53.747Z,52.31
2022-11-13T12:50:53.739Z,52.42
2022-11-13T12:51:53.727Z,52.22